Time;durP1;ratioP1;P1;durP2;ratioP2;P2;SDS_P1;SDS_P2;PMS_P1;PMS_P2;Temp;Humidity;BMP_temperature;BMP_pressure;BME280_temperature;BME280_humidity;BME280_pressure;Samples;Min_cycle;Max_cycle;Signal;HPM_P1;HPM_P2
2023/10/28 00:00:43;;;;;;;0.40;0.40;;;13.90;68.20;;;;;;5048248;28;20060;-72
2023/10/28 00:03:09;;;;;;;0.60;0.60;;;13.80;68.40;;;;;;5046855;28;20453;-72
2023/10/28 00:05:34;;;;;;;1.50;0.85;;;13.80;69.00;;;;;;5048477;28;20476;-71
2023/10/28 00:08:01;;;;;;;0.40;0.40;;;13.70;69.00;;;;;;5051872;28;20087;-71
2023/10/28 00:10:28;;;;;;;0.82;0.73;;;13.70;68.90;;;;;;5034607;28;20508;-71
2023/10/28 00:12:54;;;;;;;1.10;1.02;;;13.70;69.30;;;;;;5042835;28;20473;-72
2023/10/28 00:15:20;;;;;;;0.40;0.40;;;13.70;69.70;;;;;;5039513;28;20099;-71
2023/10/28 00:17:50;;;;;;;0.40;0.40;;;13.70;69.60;;;;;;5047487;28;20036;-70
2023/10/28 00:20:19;;;;;;;0.45;0.45;;;13.70;69.60;;;;;;5040446;28;20021;-71
2023/10/28 00:22:45;;;;;;;0.50;0.50;;;13.70;69.50;;;;;;5038088;28;20493;-72
2023/10/28 00:25:13;;;;;;;0.40;0.40;;;13.70;69.60;;;;;;5043194;28;20102;-71
2023/10/28 00:27:42;;;;;;;0.40;0.40;;;13.60;69.40;;;;;;5042651;28;20539;-71
2023/10/28 00:30:09;;;;;;;0.47;0.47;;;13.60;69.20;;;;;;5034410;28;20037;-71
2023/10/28 00:32:36;;;;;;;0.50;0.50;;;13.50;68.90;;;;;;5049518;28;20040;-70
2023/10/28 00:35:01;;;;;;;0.50;0.50;;;13.50;68.80;;;;;;5045979;28;20501;-72
2023/10/28 00:37:27;;;;;;;0.55;0.55;;;13.40;68.70;;;;;;5040349;28;20022;-71
2023/10/28 00:39:53;;;;;;;0.40;0.40;;;13.30;68.80;;;;;;5046438;28;20029;-71
2023/10/28 00:42:19;;;;;;;0.40;0.40;;;13.30;68.80;;;;;;5047975;28;20496;-71
2023/10/28 00:44:44;;;;;;;0.50;0.50;;;13.20;68.80;;;;;;5046198;28;20030;-71
2023/10/28 00:47:12;;;;;;;0.43;0.43;;;13.20;68.90;;;;;;5041833;28;20029;-72
2023/10/28 00:49:39;;;;;;;0.50;0.50;;;13.10;68.90;;;;;;5031603;28;20040;-71
2023/10/28 00:52:05;;;;;;;0.57;0.57;;;13.10;69.10;;;;;;5034698;28;20546;-70
2023/10/28 00:54:30;;;;;;;0.45;0.45;;;13.10;69.10;;;;;;5042405;28;20116;-71
2023/10/28 00:56:57;;;;;;;0.50;0.50;;;13.00;69.10;;;;;;5048121;28;20032;-71
2023/10/28 00:59:23;;;;;;;0.50;0.50;;;13.00;69.10;;;;;;5031633;28;20465;-70
2023/10/28 01:01:49;;;;;;;0.40;0.40;;;12.90;69.00;;;;;;5039710;28;20018;-71
2023/10/28 01:04:17;;;;;;;0.40;0.40;;;12.90;69.10;;;;;;5048435;28;20040;-71
2023/10/28 01:06:43;;;;;;;0.50;0.50;;;12.80;69.10;;;;;;5048669;28;20482;-72
2023/10/28 01:09:08;;;;;;;0.47;0.47;;;12.80;69.10;;;;;;5051397;28;20170;-71
2023/10/28 01:11:39;;;;;;;0.50;0.50;;;12.80;69.20;;;;;;5051097;28;20517;-71
2023/10/28 01:14:06;;;;;;;0.43;0.43;;;12.70;69.20;;;;;;5048095;28;20032;-71
2023/10/28 01:16:33;;;;;;;0.73;0.73;;;12.70;69.50;;;;;;5048342;28;20039;-71
2023/10/28 01:18:59;;;;;;;0.40;0.40;;;12.70;69.80;;;;;;5050173;28;20086;-71
2023/10/28 01:21:25;;;;;;;0.50;0.50;;;12.80;70.20;;;;;;5051041;28;20037;-71
2023/10/28 01:23:51;;;;;;;0.50;0.50;;;12.80;70.50;;;;;;5048351;28;20380;-71
2023/10/28 01:26:17;;;;;;;0.50;0.50;;;12.90;70.70;;;;;;5044561;28;20044;-71
2023/10/28 01:28:43;;;;;;;0.38;0.38;;;12.90;70.80;;;;;;5051705;28;20037;-71
2023/10/28 01:31:08;;;;;;;0.45;0.45;;;13.00;70.70;;;;;;5051461;28;20032;-71
2023/10/28 01:33:34;;;;;;;0.50;0.50;;;13.00;70.50;;;;;;5047759;28;20100;-71
2023/10/28 01:36:00;;;;;;;0.40;0.40;;;13.00;70.20;;;;;;5048757;28;20057;-73
2023/10/28 01:38:26;;;;;;;0.40;0.40;;;13.00;69.90;;;;;;5057948;28;20074;-72
2023/10/28 01:40:52;;;;;;;0.50;0.50;;;12.90;69.70;;;;;;5065006;28;20063;-71
2023/10/28 01:43:21;;;;;;;0.40;0.40;;;13.00;69.60;;;;;;5048555;28;20017;-72
2023/10/28 01:45:46;;;;;;;0.50;0.50;;;12.90;69.50;;;;;;5041160;28;20030;-70
2023/10/28 01:48:13;;;;;;;0.50;0.50;;;12.80;69.60;;;;;;5045409;28;20378;-71
2023/10/28 01:50:39;;;;;;;0.50;0.50;;;12.80;69.50;;;;;;5050253;28;20435;-71
2023/10/28 01:53:04;;;;;;;0.40;0.40;;;12.80;69.60;;;;;;5047039;28;20029;-71
2023/10/28 01:55:30;;;;;;;0.40;0.40;;;12.80;69.70;;;;;;5041040;28;20095;-70
2023/10/28 01:57:56;;;;;;;0.50;0.50;;;12.80;69.80;;;;;;5040463;28;20075;-70
2023/10/28 02:00:22;;;;;;;0.47;0.47;;;12.70;69.90;;;;;;5044163;28;20033;-71
2023/10/28 02:02:50;;;;;;;0.40;0.40;;;12.80;70.00;;;;;;5045967;28;20014;-70
2023/10/28 02:05:16;;;;;;;0.45;0.45;;;12.80;70.10;;;;;;5046616;28;20048;-70
2023/10/28 02:07:42;;;;;;;0.85;0.85;;;12.80;70.30;;;;;;5048518;28;20484;-70
2023/10/28 02:10:09;;;;;;;0.40;0.40;;;12.90;70.50;;;;;;5054614;28;20107;-70
2023/10/28 02:12:35;;;;;;;0.40;0.40;;;13.00;70.60;;;;;;5054361;28;20032;-70
2023/10/28 02:15:05;;;;;;;0.50;0.50;;;13.00;70.60;;;;;;5039032;28;20393;-72
2023/10/28 02:17:31;;;;;;;0.40;0.40;;;13.10;70.60;;;;;;5047894;28;20038;-70
2023/10/28 02:19:57;;;;;;;0.50;0.50;;;13.00;70.40;;;;;;5050695;28;20048;-71
2023/10/28 02:22:23;;;;;;;0.50;0.50;;;13.00;70.30;;;;;;5053928;28;20187;-70
2023/10/28 02:24:49;;;;;;;0.50;0.50;;;13.00;70.40;;;;;;5050664;28;20032;-72
2023/10/28 02:27:15;;;;;;;0.40;0.40;;;13.10;70.70;;;;;;5047542;28;20036;-70
2023/10/28 02:29:40;;;;;;;0.50;0.50;;;13.20;71.00;;;;;;5054369;28;20037;-70
2023/10/28 02:32:08;;;;;;;0.50;0.50;;;13.30;71.10;;;;;;5053830;28;20087;-72
2023/10/28 02:34:34;;;;;;;0.40;0.40;;;13.40;71.20;;;;;;5051117;28;20090;-70
2023/10/28 02:36:59;;;;;;;0.50;0.50;;;13.50;71.20;;;;;;5050820;28;20481;-70
2023/10/28 02:39:26;;;;;;;0.40;0.40;;;13.50;71.10;;;;;;5069211;28;20039;-70
2023/10/28 02:41:55;;;;;;;0.40;0.40;;;13.60;71.00;;;;;;5056386;28;20033;-70
2023/10/28 02:44:20;;;;;;;0.50;0.50;;;13.60;70.80;;;;;;5040084;28;20099;-71
2023/10/28 02:46:46;;;;;;;0.43;0.43;;;13.60;70.70;;;;;;5045832;28;20485;-70
2023/10/28 02:49:11;;;;;;;0.43;0.43;;;13.60;70.50;;;;;;5041959;28;20033;-71
2023/10/28 02:51:37;;;;;;;0.40;0.40;;;13.60;70.50;;;;;;5038934;28;20422;-72
2023/10/28 02:54:03;;;;;;;0.50;0.50;;;13.60;70.50;;;;;;5039496;28;20380;-70
2023/10/28 02:56:29;;;;;;;0.40;0.40;;;13.60;70.80;;;;;;5049260;28;20032;-71
2023/10/28 02:58:55;;;;;;;0.40;0.40;;;13.60;70.90;;;;;;5052676;28;20419;-71
2023/10/28 03:01:21;;;;;;;0.50;0.50;;;13.70;71.00;;;;;;5052668;28;20109;-71
2023/10/28 03:03:47;;;;;;;0.40;0.40;;;13.70;71.00;;;;;;5049095;28;20025;-71
2023/10/28 03:06:12;;;;;;;0.50;0.50;;;13.70;71.00;;;;;;5049876;28;20489;-71
2023/10/28 03:08:38;;;;;;;0.50;0.50;;;13.80;71.10;;;;;;5052091;28;20108;-70
2023/10/28 03:11:04;;;;;;;0.43;0.43;;;13.80;71.00;;;;;;5052661;28;20070;-71
2023/10/28 03:13:30;;;;;;;2.10;1.98;;;13.80;71.00;;;;;;5047851;28;20037;-71
2023/10/28 03:15:56;;;;;;;0.57;0.57;;;13.80;71.00;;;;;;5049783;28;20032;-70
2023/10/28 03:18:22;;;;;;;0.40;0.40;;;13.90;71.20;;;;;;5051837;28;20025;-70
2023/10/28 03:20:48;;;;;;;0.40;0.40;;;13.90;71.30;;;;;;5052705;28;20372;-73
2023/10/28 03:23:14;;;;;;;0.50;0.50;;;14.00;71.30;;;;;;5051051;28;20033;-74
2023/10/28 03:25:40;;;;;;;0.40;0.40;;;14.00;71.40;;;;;;5048939;28;20114;-73
2023/10/28 03:28:06;;;;;;;0.40;0.40;;;14.10;71.50;;;;;;5051953;28;20036;-72
2023/10/28 03:30:32;;;;;;;0.50;0.50;;;14.10;71.60;;;;;;5052676;28;20033;-72
2023/10/28 03:32:58;;;;;;;0.43;0.43;;;14.10;71.70;;;;;;5052215;28;20028;-72
2023/10/28 03:35:24;;;;;;;0.40;0.40;;;14.20;71.70;;;;;;5042810;28;20493;-72
2023/10/28 03:37:49;;;;;;;0.50;0.50;;;14.20;71.80;;;;;;5054273;28;20031;-72
2023/10/28 03:40:15;;;;;;;0.40;0.40;;;14.30;71.80;;;;;;5057382;28;20056;-72
2023/10/28 03:42:40;;;;;;;0.40;0.40;;;14.30;71.80;;;;;;5035874;28;20075;-72
2023/10/28 03:45:10;;;;;;;0.40;0.40;;;14.40;71.80;;;;;;5044307;28;20477;-72
2023/10/28 03:47:36;;;;;;;0.40;0.40;;;14.40;71.80;;;;;;5044341;28;20025;-73
2023/10/28 03:50:05;;;;;;;0.40;0.40;;;14.50;71.80;;;;;;5001815;28;1049336;-73
2023/10/28 03:52:30;;;;;;;0.40;0.40;;;14.40;71.70;;;;;;5034427;28;20029;-72
2023/10/28 03:54:57;;;;;;;0.43;0.43;;;14.50;71.60;;;;;;5043372;28;20094;-73
2023/10/28 03:57:22;;;;;;;0.47;0.47;;;14.40;71.40;;;;;;5051329;28;20024;-71
2023/10/28 03:59:49;;;;;;;0.50;0.50;;;14.50;71.30;;;;;;5037856;28;20030;-71
2023/10/28 04:02:15;;;;;;;0.40;0.40;;;14.40;71.30;;;;;;5038119;28;20033;-72
2023/10/28 04:04:41;;;;;;;0.50;0.50;;;14.40;71.10;;;;;;5046738;28;20510;-71
2023/10/28 04:07:06;;;;;;;0.40;0.40;;;14.30;71.10;;;;;;5042032;28;20104;-70
2023/10/28 04:09:32;;;;;;;0.40;0.40;;;14.30;71.10;;;;;;5052784;28;20465;-71
2023/10/28 04:12:00;;;;;;;0.45;0.45;;;14.30;71.10;;;;;;5039031;28;20477;-71
2023/10/28 04:14:25;;;;;;;0.40;0.40;;;14.30;71.20;;;;;;5035728;28;20034;-71
2023/10/28 04:16:51;;;;;;;0.40;0.40;;;14.30;71.30;;;;;;5041709;28;20037;-71
2023/10/28 04:19:17;;;;;;;0.40;0.40;;;14.40;71.40;;;;;;5049220;28;20078;-71
2023/10/28 04:21:43;;;;;;;0.40;0.40;;;14.40;71.50;;;;;;5037954;28;20052;-71
2023/10/28 04:24:09;;;;;;;0.88;0.88;;;14.40;71.50;;;;;;5036461;28;20020;-70
2023/10/28 04:26:35;;;;;;;0.40;0.40;;;14.50;71.50;;;;;;5040958;28;20021;-70
2023/10/28 04:29:01;;;;;;;0.40;0.40;;;14.50;71.50;;;;;;5035486;28;20029;-71
2023/10/28 04:31:29;;;;;;;0.40;0.40;;;14.50;71.40;;;;;;5037264;28;20044;-71
2023/10/28 04:33:56;;;;;;;0.40;0.40;;;14.60;71.50;;;;;;5041331;28;20029;-70
2023/10/28 04:36:21;;;;;;;0.45;0.45;;;14.60;71.50;;;;;;5045215;28;20017;-72
2023/10/28 04:38:47;;;;;;;0.40;0.40;;;14.60;71.50;;;;;;5047870;28;20432;-70
2023/10/28 04:41:13;;;;;;;0.40;0.40;;;14.70;71.50;;;;;;5046249;28;20037;-71
2023/10/28 04:43:39;;;;;;;0.50;0.50;;;14.70;71.50;;;;;;5039862;28;20025;-70
2023/10/28 04:46:05;;;;;;;0.50;0.50;;;14.70;71.40;;;;;;5049821;28;20103;-70
2023/10/28 04:48:32;;;;;;;0.40;0.40;;;14.70;71.30;;;;;;5051674;28;20039;-71
2023/10/28 04:50:57;;;;;;;0.50;0.50;;;14.70;71.40;;;;;;5049149;28;20091;-71
2023/10/28 04:53:23;;;;;;;0.50;0.50;;;14.70;71.40;;;;;;5049008;28;20414;-70
2023/10/28 04:55:48;;;;;;;0.40;0.40;;;14.80;71.30;;;;;;5049104;28;20061;-70
2023/10/28 04:58:15;;;;;;;0.50;0.50;;;14.80;71.20;;;;;;5050631;28;20083;-70
2023/10/28 05:00:41;;;;;;;0.95;0.95;;;14.80;71.20;;;;;;5051938;28;20399;-70
2023/10/28 05:03:06;;;;;;;0.50;0.50;;;14.80;71.20;;;;;;5043677;28;20017;-71
2023/10/28 05:05:32;;;;;;;0.40;0.40;;;14.80;71.30;;;;;;5043455;28;20037;-70
2023/10/28 05:07:58;;;;;;;0.40;0.40;;;14.80;71.20;;;;;;5039142;28;20029;-70
2023/10/28 05:10:23;;;;;;;0.40;0.40;;;14.80;71.20;;;;;;5034218;28;20038;-69
2023/10/28 05:12:49;;;;;;;0.40;0.40;;;14.80;71.10;;;;;;5050498;28;20404;-70
2023/10/28 05:15:15;;;;;;;0.50;0.50;;;14.80;71.20;;;;;;5047539;28;20033;-70
2023/10/28 05:17:41;;;;;;;0.40;0.40;;;14.80;71.20;;;;;;5049693;28;20020;-70
2023/10/28 05:20:08;;;;;;;0.40;0.40;;;14.80;71.20;;;;;;5051668;28;20029;-70
2023/10/28 05:22:38;;;;;;;0.40;0.40;;;14.90;71.20;;;;;;5051229;28;20021;-71
2023/10/28 05:25:04;;;;;;;0.40;0.40;;;14.80;71.20;;;;;;5045664;28;20654;-71
2023/10/28 05:27:31;;;;;;;0.50;0.50;;;14.80;71.10;;;;;;5048007;28;20033;-70
2023/10/28 05:29:56;;;;;;;0.40;0.40;;;14.80;71.10;;;;;;5049986;28;20079;-71
2023/10/28 05:32:22;;;;;;;0.50;0.50;;;14.80;71.10;;;;;;5050943;28;20064;-71
2023/10/28 05:34:47;;;;;;;0.40;0.40;;;14.80;71.10;;;;;;5048248;28;20025;-71
2023/10/28 05:37:13;;;;;;;0.47;0.47;;;14.80;71.20;;;;;;5047988;28;20639;-71
2023/10/28 05:39:41;;;;;;;0.35;0.35;;;14.80;71.10;;;;;;5068301;28;20024;-70
2023/10/28 05:42:07;;;;;;;0.40;0.40;;;14.80;71.00;;;;;;5060611;28;20178;-70
2023/10/28 05:44:35;;;;;;;6.97;0.80;;;14.80;71.00;;;;;;5048052;28;20465;-71
2023/10/28 05:47:00;;;;;;;0.40;0.40;;;14.80;71.20;;;;;;5047940;28;20110;-71
2023/10/28 05:49:26;;;;;;;0.40;0.40;;;14.80;71.20;;;;;;5049531;28;20488;-71
2023/10/28 05:51:52;;;;;;;0.40;0.40;;;14.80;71.20;;;;;;5049560;28;20037;-70
2023/10/28 05:54:17;;;;;;;0.40;0.40;;;14.80;71.20;;;;;;5048011;28;20104;-70
2023/10/28 05:56:43;;;;;;;0.40;0.40;;;14.80;71.20;;;;;;5048088;28;20396;-70
2023/10/28 05:59:08;;;;;;;0.40;0.40;;;14.80;71.30;;;;;;5050404;28;20021;-70
2023/10/28 06:01:37;;;;;;;0.40;0.40;;;14.80;71.30;;;;;;5049504;28;20104;-70
2023/10/28 06:04:03;;;;;;;0.40;0.40;;;14.90;71.30;;;;;;5047472;28;20075;-71
2023/10/28 06:06:29;;;;;;;0.40;0.40;;;14.80;71.30;;;;;;5049870;28;20025;-71
2023/10/28 06:08:56;;;;;;;0.43;0.43;;;14.90;71.30;;;;;;5051062;28;20014;-71
2023/10/28 06:11:22;;;;;;;0.47;0.47;;;15.00;71.40;;;;;;5049740;28;20033;-71
2023/10/28 06:13:48;;;;;;;0.40;0.40;;;14.90;71.20;;;;;;5043096;28;20036;-71
2023/10/28 06:16:14;;;;;;;0.57;0.57;;;15.00;71.20;;;;;;5046957;28;20104;-71
2023/10/28 06:18:39;;;;;;;0.50;0.50;;;15.00;71.20;;;;;;5038943;28;20141;-72
2023/10/28 06:21:05;;;;;;;0.40;0.40;;;15.00;71.10;;;;;;5044887;28;20079;-71
2023/10/28 06:23:30;;;;;;;0.40;0.40;;;15.00;71.10;;;;;;5040832;28;20071;-71
2023/10/28 06:25:56;;;;;;;0.40;0.40;;;15.00;71.20;;;;;;5031437;28;20033;-71
2023/10/28 06:28:22;;;;;;;0.50;0.50;;;15.00;71.20;;;;;;5034116;28;20045;-71
2023/10/28 06:30:48;;;;;;;0.40;0.40;;;15.00;71.30;;;;;;5040127;28;20034;-71
2023/10/28 06:33:13;;;;;;;0.40;0.40;;;15.00;71.30;;;;;;5039091;28;20584;-71
2023/10/28 06:35:39;;;;;;;0.60;0.60;;;15.10;71.30;;;;;;5039626;28;20029;-71
2023/10/28 06:38:06;;;;;;;0.40;0.40;;;15.10;71.40;;;;;;5040105;28;20025;-71
2023/10/28 06:40:32;;;;;;;0.40;0.40;;;15.10;71.40;;;;;;5061828;28;20033;-71
2023/10/28 06:42:58;;;;;;;1.02;0.95;;;15.10;71.40;;;;;;5054085;28;20427;-71
2023/10/28 06:45:23;;;;;;;0.60;0.60;;;15.20;71.40;;;;;;5054824;28;20033;-70
2023/10/28 06:47:50;;;;;;;0.50;0.50;;;15.20;71.40;;;;;;5054451;28;20025;-71
2023/10/28 06:50:19;;;;;;;0.30;0.30;;;15.20;71.40;;;;;;5054172;28;20039;-71
2023/10/28 06:52:47;;;;;;;0.40;0.40;;;15.20;71.40;;;;;;5046715;28;20045;-70
2023/10/28 06:55:12;;;;;;;0.40;0.40;;;15.30;71.40;;;;;;5032577;28;20096;-71
2023/10/28 06:57:38;;;;;;;0.40;0.40;;;15.30;71.40;;;;;;5034014;28;20381;-71
2023/10/28 07:00:05;;;;;;;0.50;0.50;;;15.30;71.40;;;;;;5035739;28;20113;-72
2023/10/28 07:02:32;;;;;;;0.40;0.40;;;15.30;71.30;;;;;;5035492;28;20112;-71
2023/10/28 07:04:57;;;;;;;0.95;0.95;;;15.30;71.20;;;;;;5034687;28;20041;-71
2023/10/28 07:07:23;;;;;;;0.40;0.40;;;15.30;71.20;;;;;;5035426;28;20067;-71
2023/10/28 07:09:49;;;;;;;0.68;0.68;;;15.30;71.30;;;;;;5038347;28;20054;-71
2023/10/28 07:12:14;;;;;;;0.60;0.60;;;15.30;71.20;;;;;;5039893;28;20029;-72
2023/10/28 07:14:40;;;;;;;1.17;1.10;;;15.30;71.30;;;;;;5039065;28;20481;-71
2023/10/28 07:17:06;;;;;;;0.32;0.32;;;15.30;71.40;;;;;;5036552;28;20034;-72
2023/10/28 07:19:31;;;;;;;0.40;0.40;;;15.30;71.60;;;;;;5042490;28;20032;-71
2023/10/28 07:21:57;;;;;;;0.40;0.40;;;15.40;71.60;;;;;;5041631;28;20048;-71
2023/10/28 07:24:23;;;;;;;0.47;0.47;;;15.40;71.60;;;;;;5043347;28;20460;-71
2023/10/28 07:26:50;;;;;;;0.50;0.50;;;15.50;71.50;;;;;;5048819;28;20029;-71
2023/10/28 07:29:17;;;;;;;0.40;0.40;;;15.50;71.60;;;;;;5052519;28;20380;-71
2023/10/28 07:31:42;;;;;;;1.27;1.02;;;15.60;71.60;;;;;;5053394;28;20044;-72
2023/10/28 07:34:08;;;;;;;0.40;0.40;;;15.60;71.60;;;;;;5051095;28;20025;-71
2023/10/28 07:36:34;;;;;;;0.50;0.50;;;15.60;71.60;;;;;;5051291;28;20040;-71
2023/10/28 07:39:03;;;;;;;0.50;0.50;;;15.70;71.70;;;;;;5052740;28;20021;-72
2023/10/28 07:41:29;;;;;;;0.40;0.40;;;15.70;71.80;;;;;;5053363;28;20029;-72
2023/10/28 07:43:56;;;;;;;0.50;0.50;;;15.80;71.90;;;;;;5051094;28;20469;-71
2023/10/28 07:46:22;;;;;;;0.40;0.40;;;15.80;71.70;;;;;;5051026;28;20049;-71
2023/10/28 07:48:48;;;;;;;0.40;0.40;;;15.90;71.60;;;;;;5052885;28;20396;-72
2023/10/28 07:51:16;;;;;;;0.60;0.60;;;15.90;71.50;;;;;;5052474;28;20473;-72
2023/10/28 07:53:42;;;;;;;0.45;0.45;;;16.00;71.60;;;;;;5048963;28;20496;-71
2023/10/28 07:56:07;;;;;;;0.50;0.50;;;16.00;71.60;;;;;;5050783;28;20056;-71
2023/10/28 07:58:33;;;;;;;0.50;0.50;;;16.10;71.60;;;;;;5053072;28;20032;-71
2023/10/28 08:00:58;;;;;;;0.32;0.32;;;16.20;71.80;;;;;;5053398;28;20035;-83
2023/10/28 08:03:25;;;;;;;0.40;0.40;;;16.20;71.70;;;;;;5053844;28;20025;-83
2023/10/28 08:05:50;;;;;;;0.50;0.50;;;16.30;71.80;;;;;;5054094;28;20029;-83
2023/10/28 08:08:16;;;;;;;0.40;0.40;;;16.30;71.90;;;;;;5058828;28;20031;-83
2023/10/28 08:10:41;;;;;;;1.75;1.02;;;16.40;71.90;;;;;;5052773;28;20038;-84
2023/10/28 08:13:07;;;;;;;0.47;0.47;;;16.50;71.90;;;;;;5057052;28;20025;-83
2023/10/28 08:15:33;;;;;;;0.40;0.40;;;16.60;72.10;;;;;;5052464;28;20029;-83
2023/10/28 08:17:59;;;;;;;0.50;0.50;;;16.70;72.00;;;;;;5051551;28;20029;-83
2023/10/28 08:20:24;;;;;;;0.50;0.50;;;16.70;72.00;;;;;;5055008;28;20496;-84
2023/10/28 08:22:50;;;;;;;1.10;1.02;;;16.80;72.00;;;;;;5054842;28;20032;-83
2023/10/28 08:25:16;;;;;;;0.40;0.40;;;16.80;72.00;;;;;;5054390;28;20370;-84
2023/10/28 08:27:43;;;;;;;0.50;0.50;;;16.80;71.80;;;;;;5052459;28;20495;-84
2023/10/28 08:30:09;;;;;;;1.55;1.13;;;16.90;71.80;;;;;;5054322;28;20040;-83
2023/10/28 08:32:38;;;;;;;0.40;0.40;;;17.00;71.80;;;;;;5054980;28;20076;-84
2023/10/28 08:35:03;;;;;;;0.40;0.40;;;17.00;72.10;;;;;;5051518;28;20048;-83
2023/10/28 08:37:29;;;;;;;0.40;0.40;;;17.10;71.90;;;;;;5052515;28;20036;-82
2023/10/28 08:39:54;;;;;;;2.70;1.20;;;17.10;72.00;;;;;;5054595;28;20021;-80
2023/10/28 08:42:20;;;;;;;0.57;0.57;;;17.20;71.90;;;;;;5053211;28;20028;-80
2023/10/28 08:44:48;;;;;;;0.50;0.50;;;17.30;71.90;;;;;;5050839;28;20028;-82
2023/10/28 08:47:16;;;;;;;0.40;0.40;;;17.30;71.90;;;;;;5050639;28;20025;-81
2023/10/28 08:49:43;;;;;;;0.50;0.50;;;17.40;72.10;;;;;;5052255;28;20083;-79
2023/10/28 08:52:11;;;;;;;0.45;0.45;;;17.60;72.60;;;;;;5052186;28;20021;-79
2023/10/28 08:54:38;;;;;;;13.25;0.77;;;17.80;72.50;;;;;;5050538;28;20393;-79
2023/10/28 08:57:05;;;;;;;0.40;0.40;;;18.00;72.90;;;;;;5049085;28;20032;-79
2023/10/28 08:59:30;;;;;;;0.50;0.50;;;18.20;72.70;;;;;;5051440;28;20035;-78
2023/10/28 09:01:57;;;;;;;0.30;0.30;;;18.30;72.60;;;;;;5052336;28;20096;-78
2023/10/28 09:04:24;;;;;;;0.40;0.40;;;18.40;72.20;;;;;;5049675;28;20056;-77
2023/10/28 09:06:54;;;;;;;0.40;0.40;;;18.60;72.40;;;;;;5049135;28;20035;-77
2023/10/28 09:09:21;;;;;;;0.40;0.40;;;18.60;72.00;;;;;;5051017;28;20140;-77
2023/10/28 09:11:48;;;;;;;0.60;0.60;;;18.60;71.60;;;;;;5051664;28;20362;-70
2023/10/28 09:14:13;;;;;;;0.65;0.65;;;18.50;71.30;;;;;;5049272;28;20472;-70
2023/10/28 09:16:39;;;;;;;0.40;0.40;;;18.50;71.30;;;;;;5038335;28;20100;-70
2023/10/28 09:19:05;;;;;;;0.80;0.80;;;18.40;70.40;;;;;;5034838;28;20191;-71
2023/10/28 09:21:31;;;;;;;0.50;0.50;;;18.20;69.80;;;;;;5034360;28;20485;-71
2023/10/28 09:24:00;;;;;;;0.40;0.40;;;18.00;69.60;;;;;;5039672;28;20501;-71
2023/10/28 09:26:29;;;;;;;0.47;0.47;;;17.80;70.40;;;;;;5038603;28;20409;-71
2023/10/28 09:28:55;;;;;;;0.50;0.50;;;17.80;70.70;;;;;;5037679;28;20483;-72
2023/10/28 09:31:25;;;;;;;0.43;0.43;;;17.80;71.20;;;;;;5050483;28;20119;-72
2023/10/28 09:33:51;;;;;;;0.60;0.60;;;17.90;71.30;;;;;;5048052;28;20025;-71
2023/10/28 09:36:17;;;;;;;0.50;0.50;;;18.00;71.60;;;;;;5031971;28;20037;-70
2023/10/28 09:38:45;;;;;;;0.47;0.47;;;18.10;71.40;;;;;;5032058;28;20045;-71
2023/10/28 09:41:11;;;;;;;0.40;0.40;;;18.10;71.00;;;;;;5033317;28;20033;-69
2023/10/28 09:43:38;;;;;;;0.40;0.40;;;18.10;71.10;;;;;;5048223;28;20033;-70
2023/10/28 09:46:05;;;;;;;0.60;0.60;;;18.10;70.90;;;;;;5038666;28;20069;-70
2023/10/28 09:48:32;;;;;;;0.70;0.70;;;18.10;71.00;;;;;;5042927;28;20507;-70
2023/10/28 09:50:58;;;;;;;0.45;0.45;;;18.20;70.90;;;;;;5046984;28;20048;-70
2023/10/28 09:53:30;;;;;;;0.40;0.40;;;18.20;70.90;;;;;;5036351;28;20429;-71
2023/10/28 09:55:56;;;;;;;0.60;0.60;;;18.10;70.60;;;;;;5044104;28;20025;-72
2023/10/28 09:58:28;;;;;;;0.50;0.50;;;18.00;70.60;;;;;;5038094;28;20505;-70
2023/10/28 10:01:08;;;;;;;0.73;0.73;;;18.00;71.10;;;;;;5042423;28;20074;-70
2023/10/28 10:03:56;;;;;;;0.50;0.50;;;18.10;71.70;;;;;;5039679;28;21110;-71
2023/10/28 10:06:23;;;;;;;0.50;0.50;;;18.20;71.90;;;;;;5038606;28;20050;-72
2023/10/28 10:08:50;;;;;;;0.50;0.50;;;18.40;72.40;;;;;;5040902;28;20091;-71
2023/10/28 10:11:23;;;;;;;0.50;0.50;;;18.50;72.30;;;;;;5037912;28;20082;-72
2023/10/28 10:13:49;;;;;;;0.60;0.60;;;18.60;72.00;;;;;;5036829;28;20107;-71
2023/10/28 10:16:30;;;;;;;0.50;0.50;;;18.70;71.90;;;;;;5035947;28;20133;-70
2023/10/28 10:18:58;;;;;;;0.43;0.43;;;18.80;72.10;;;;;;5045342;28;20030;-71
2023/10/28 10:21:35;;;;;;;0.77;0.70;;;19.00;72.40;;;;;;5037455;28;20033;-78
2023/10/28 10:24:04;;;;;;;0.40;0.40;;;19.00;72.00;;;;;;5043358;28;20028;-79
2023/10/28 10:26:35;;;;;;;1.38;0.82;;;19.30;73.10;;;;;;5047839;28;20052;-79
2023/10/28 10:29:03;;;;;;;;;;;19.60;72.40;;;;;;5045565;28;20088;-79
2023/10/28 10:31:33;;;;;;;0.47;0.47;;;19.60;71.60;;;;;;5047046;28;19913;-76
2023/10/28 10:34:07;;;;;;;0.50;0.50;;;19.50;71.00;;;;;;5036645;28;20048;-79
2023/10/28 10:36:41;;;;;;;0.40;0.40;;;19.30;70.70;;;;;;5039862;28;20033;-80
2023/10/28 10:39:14;;;;;;;0.40;0.40;;;19.10;70.30;;;;;;5050200;28;20507;-78
2023/10/28 10:41:40;;;;;;;0.70;0.70;;;19.00;70.50;;;;;;5042907;28;20021;-78
2023/10/28 10:44:31;;;;;;;0.40;0.40;;;18.90;70.50;;;;;;5045328;28;20060;-77
2023/10/28 10:46:58;;;;;;;0.40;0.40;;;18.90;70.50;;;;;;5040989;28;20029;-78
2023/10/28 10:49:24;;;;;;;0.40;0.40;;;18.90;71.20;;;;;;5045692;28;20495;-79
2023/10/28 10:51:50;;;;;;;0.50;0.50;;;19.00;71.20;;;;;;5032624;28;20029;-79
2023/10/28 10:54:19;;;;;;;0.40;0.40;;;19.00;70.30;;;;;;5054169;28;20029;-79
2023/10/28 10:56:45;;;;;;;0.40;0.40;;;19.00;70.50;;;;;;5065235;28;20028;-79
2023/10/28 10:59:11;;;;;;;0.85;0.85;;;19.00;71.00;;;;;;5059635;28;20029;-78
2023/10/28 11:01:40;;;;;;;0.40;0.40;;;19.00;70.30;;;;;;5061683;28;20460;-80
2023/10/28 11:04:06;;;;;;;0.40;0.40;;;18.80;69.30;;;;;;5057542;28;20422;-78
2023/10/28 11:06:33;;;;;;;0.47;0.47;;;18.60;68.80;;;;;;5063837;28;20104;-76
2023/10/28 11:09:05;;;;;;;0.43;0.43;;;18.40;68.60;;;;;;5058261;28;20067;-77
2023/10/28 11:11:35;;;;;;;0.40;0.40;;;18.20;68.60;;;;;;5051299;28;20131;-76
2023/10/28 11:14:02;;;;;;;1.23;0.83;;;17.90;68.80;;;;;;5057847;28;20063;-76
2023/10/28 11:16:28;;;;;;;0.40;0.40;;;17.80;69.70;;;;;;5065373;28;20025;-77
2023/10/28 11:18:54;;;;;;;0.45;0.45;;;17.70;70.00;;;;;;5054039;28;20435;-78
2023/10/28 11:21:26;;;;;;;0.40;0.40;;;17.70;71.00;;;;;;5060807;28;20025;-80
2023/10/28 11:23:54;;;;;;;0.40;0.40;;;17.70;71.60;;;;;;5050615;28;20056;-77
2023/10/28 11:26:20;;;;;;;0.50;0.50;;;17.70;71.70;;;;;;5054075;28;20519;-76
2023/10/28 11:28:45;;;;;;;0.50;0.50;;;17.70;71.70;;;;;;5055482;28;20029;-77
2023/10/28 11:31:11;;;;;;;0.55;0.55;;;17.60;71.30;;;;;;5060529;28;20055;-76
2023/10/28 11:33:37;;;;;;;0.60;0.60;;;17.60;71.30;;;;;;5059420;28;20591;-77
2023/10/28 11:36:07;;;;;;;1.75;1.25;;;17.60;71.50;;;;;;5065067;28;20131;-75
2023/10/28 11:38:34;;;;;;;0.40;0.40;;;17.70;72.30;;;;;;5053596;28;20025;-81
2023/10/28 11:41:06;;;;;;;0.40;0.40;;;17.80;72.40;;;;;;5061416;28;20029;-80
2023/10/28 11:43:35;;;;;;;0.60;0.60;;;17.80;72.20;;;;;;5060824;28;20111;-80
2023/10/28 11:46:00;;;;;;;0.50;0.50;;;17.80;72.20;;;;;;5067394;28;20036;-77
2023/10/28 11:48:27;;;;;;;0.40;0.40;;;17.80;71.70;;;;;;5052260;28;20484;-75
2023/10/28 11:50:56;;;;;;;0.45;0.45;;;17.70;71.30;;;;;;5062478;28;20464;-77
2023/10/28 11:53:26;;;;;;;0.50;0.50;;;17.70;71.30;;;;;;5061737;28;20028;-78
2023/10/28 11:55:52;;;;;;;0.40;0.40;;;17.60;71.20;;;;;;5066417;28;20539;-80
2023/10/28 11:58:18;;;;;;;0.55;0.55;;;17.60;71.40;;;;;;5052524;28;20400;-78
2023/10/28 12:00:52;;;;;;;0.40;0.40;;;17.50;71.60;;;;;;5061781;28;20027;-79
2023/10/28 12:03:19;;;;;;;0.40;0.40;;;17.50;71.60;;;;;;5062401;28;20017;-78
2023/10/28 12:05:44;;;;;;;0.40;0.40;;;17.50;72.30;;;;;;5063449;28;20127;-79
2023/10/28 12:08:11;;;;;;;0.40;0.40;;;17.70;73.00;;;;;;5053949;28;20100;-81
2023/10/28 12:10:44;;;;;;;0.55;0.55;;;17.80;73.10;;;;;;5060653;28;20500;-80
2023/10/28 12:13:14;;;;;;;0.47;0.47;;;17.90;72.80;;;;;;5063174;28;20239;-76
2023/10/28 12:15:40;;;;;;;0.75;0.75;;;18.00;73.30;;;;;;5063638;28;20035;-80
2023/10/28 12:18:07;;;;;;;0.55;0.55;;;18.10;72.60;;;;;;5053985;28;20033;-80
2023/10/28 12:20:33;;;;;;;0.40;0.40;;;18.20;72.30;;;;;;5054400;28;20037;-80
2023/10/28 12:22:59;;;;;;;0.60;0.60;;;18.20;71.80;;;;;;5063041;28;20027;-80
2023/10/28 12:25:25;;;;;;;0.43;0.43;;;18.20;71.70;;;;;;5060336;28;20032;-79
2023/10/28 12:27:51;;;;;;;0.30;0.30;;;18.20;71.70;;;;;;5044497;28;20172;-82
2023/10/28 12:30:17;;;;;;;0.45;0.45;;;18.30;72.10;;;;;;5057884;28;20032;-80
2023/10/28 12:32:43;;;;;;;0.40;0.40;;;18.40;72.20;;;;;;5064033;28;20088;-79
2023/10/28 12:35:09;;;;;;;0.40;0.40;;;18.50;72.50;;;;;;5060512;28;20131;-80
2023/10/28 12:37:35;;;;;;;0.40;0.40;;;18.70;73.00;;;;;;5057599;28;20025;-77
2023/10/28 12:40:00;;;;;;;0.40;0.40;;;18.80;72.90;;;;;;5056776;28;20065;-77
2023/10/28 12:42:26;;;;;;;0.40;0.40;;;19.00;72.80;;;;;;5061848;28;20021;-72
2023/10/28 12:44:52;;;;;;;0.40;0.40;;;19.20;72.80;;;;;;5059453;28;20380;-72